Time;durP1;ratioP1;P1;durP2;ratioP2;P2;SDS_P1;SDS_P2;PMS_P1;PMS_P2;Temp;Humidity;BMP_temperature;BMP_pressure;BME280_temperature;BME280_humidity;BME280_pressure;Samples;Min_cycle;Max_cycle;Signal;HPM_P1;HPM_P2
2021/03/28 00:02:20;;;;;;;9.32;6.78;;;;;;;;;;6267728;28;20041;-70
2021/03/28 00:05:28;;;;;;;10.43;6.63;;;;;;;;;;6262531;28;20060;-70
2021/03/28 00:08:29;;;;;;;9.15;6.57;;;;;;;;;;6257566;28;20083;-70
2021/03/28 00:11:31;;;;;;;10.10;6.82;;;;;;;;;;6260400;28;20159;-70
2021/03/28 00:14:42;;;;;;;11.93;6.32;;;;;;;;;;6265913;28;20620;-70
2021/03/28 00:17:47;;;;;;;8.85;6.82;;;;;;;;;;6235773;28;20125;-70
2021/03/28 00:20:50;;;;;;;10.30;6.97;;;;;;;;;;6259704;28;20540;-70
2021/03/28 00:23:53;;;;;;;9.43;6.18;;;;;;;;;;6258337;28;20262;-70
2021/03/28 00:27:06;;;;;;;7.80;6.00;;;;;;;;;;6266357;28;20120;-70
2021/03/28 00:30:23;;;;;;;8.68;6.30;;;;;;;;;;6258445;28;20049;-70
2021/03/28 00:33:25;;;;;;;8.50;6.35;;;;;;;;;;6260437;28;20128;-70
2021/03/28 00:36:32;;;;;;;10.52;6.22;;;;;;;;;;6251300;28;20139;-70
2021/03/28 00:39:43;;;;;;;10.00;5.93;;;;;;;;;;6255651;28;20140;-71
2021/03/28 00:42:46;;;;;;;8.82;6.05;;;;;;;;;;6259376;28;20084;-71
2021/03/28 00:45:55;;;;;;;10.40;6.50;;;;;;;;;;6263754;28;20148;-71
2021/03/28 00:48:57;;;;;;;7.70;6.13;;;;;;;;;;6261231;28;20045;-71
2021/03/28 00:52:01;;;;;;;9.18;6.75;;;;;;;;;;6258403;28;20464;-71
2021/03/28 00:55:14;;;;;;;11.93;7.32;;;;;;;;;;6255998;28;20130;-70
2021/03/28 00:58:20;;;;;;;10.88;6.90;;;;;;;;;;6253135;28;20056;-70
2021/03/28 01:01:34;;;;;;;12.20;6.93;;;;;;;;;;6283494;23;20117;-76
2021/03/28 01:05:05;;;;;;;10.25;7.25;;;;;;;;;;6284839;28;20099;-77
2021/03/28 01:08:17;;;;;;;11.52;6.82;;;;;;;;;;6277403;28;20052;-77
2021/03/28 01:11:25;;;;;;;10.60;7.18;;;;;;;;;;6279492;28;20083;-76
2021/03/28 01:14:35;;;;;;;13.13;7.88;;;;;;;;;;6291299;28;20072;-75
2021/03/28 01:17:44;;;;;;;13.73;7.22;;;;;;;;;;6288432;28;20472;-75
2021/03/28 01:20:56;;;;;;;13.45;7.50;;;;;;;;;;6288269;28;20075;-76
2021/03/28 01:24:05;;;;;;;13.23;8.25;;;;;;;;;;6287669;28;20049;-75
2021/03/28 01:27:13;;;;;;;11.43;8.50;;;;;;;;;;6283571;28;20113;-75
2021/03/28 01:30:17;;;;;;;13.00;8.43;;;;;;;;;;6288522;28;20068;-75
2021/03/28 01:33:24;;;;;;;15.55;9.07;;;;;;;;;;6280345;28;20086;-75
2021/03/28 01:36:31;;;;;;;13.82;8.93;;;;;;;;;;6286301;28;20135;-75
2021/03/28 01:39:40;;;;;;;14.85;9.95;;;;;;;;;;6283787;28;20115;-75
2021/03/28 01:42:56;;;;;;;13.30;10.05;;;;;;;;;;6283984;28;20064;-77
2021/03/28 01:46:01;;;;;;;14.73;9.73;;;;;;;;;;6284616;28;20128;-77
2021/03/28 01:49:14;;;;;;;16.42;10.45;;;;;;;;;;6285446;28;20080;-77
2021/03/28 01:52:20;;;;;;;14.27;10.70;;;;;;;;;;6286617;28;20080;-78
2021/03/28 01:55:27;;;;;;;14.57;11.13;;;;;;;;;;6286855;28;20136;-77
2021/03/28 01:58:39;;;;;;;16.05;10.57;;;;;;;;;;6287281;28;20471;-77
2021/03/28 02:01:46;;;;;;;15.90;11.73;;;;;;;;;;6283463;28;20083;-77
2021/03/28 02:04:53;;;;;;;16.48;11.13;;;;;;;;;;6285983;28;20730;-77
2021/03/28 02:08:04;;;;;;;15.90;12.05;;;;;;;;;;6280482;28;20059;-77
2021/03/28 02:11:27;;;;;;;17.75;11.65;;;;;;;;;;6278355;28;20056;-78
2021/03/28 02:14:46;;;;;;;16.10;11.88;;;;;;;;;;6286548;28;20076;-77
2021/03/28 02:17:56;;;;;;;15.00;11.88;;;;;;;;;;6288136;28;20074;-77
2021/03/28 02:21:08;;;;;;;16.55;12.02;;;;;;;;;;6289198;28;20064;-77
2021/03/28 02:24:14;;;;;;;18.58;12.43;;;;;;;;;;6292759;28;20118;-78
2021/03/28 02:27:20;;;;;;;20.13;13.35;;;;;;;;;;6283817;28;20157;-76
2021/03/28 02:30:27;;;;;;;18.13;11.90;;;;;;;;;;6283064;28;20098;-76
2021/03/28 02:33:33;;;;;;;17.60;11.43;;;;;;;;;;6290278;28;20049;-75
2021/03/28 02:36:37;;;;;;;19.55;12.85;;;;;;;;;;6285796;28;20671;-76
2021/03/28 02:39:49;;;;;;;16.23;11.63;;;;;;;;;;6287440;28;20044;-76
2021/03/28 02:43:00;;;;;;;14.18;11.30;;;;;;;;;;6283222;28;20072;-77
2021/03/28 02:46:17;;;;;;;18.63;12.55;;;;;;;;;;6282681;28;20076;-77
2021/03/28 02:49:38;;;;;;;19.20;12.50;;;;;;;;;;6287261;28;20084;-77
2021/03/28 02:52:57;;;;;;;16.35;11.30;;;;;;;;;;6285943;28;20149;-77
2021/03/28 02:56:23;;;;;;;20.55;12.20;;;;;;;;;;6284267;28;20119;-77
2021/03/28 02:59:31;;;;;;;14.50;11.77;;;;;;;;;;6281470;28;20530;-77
2021/03/28 03:03:01;;;;;;;16.63;11.93;;;;;;;;;;6286600;28;20058;-77
2021/03/28 03:06:09;;;;;;;17.98;12.55;;;;;;;;;;6289570;28;20051;-77
2021/03/28 03:09:19;;;;;;;21.10;12.63;;;;;;;;;;6291006;28;20087;-77
2021/03/28 03:12:29;;;;;;;18.13;12.48;;;;;;;;;;6290744;28;20135;-78
2021/03/28 03:15:36;;;;;;;16.92;11.60;;;;;;;;;;6283430;28;20060;-77
2021/03/28 03:19:06;;;;;;;17.55;11.88;;;;;;;;;;6286602;28;20078;-78
2021/03/28 03:22:32;;;;;;;16.30;12.77;;;;;;;;;;6288586;28;20059;-77
2021/03/28 03:26:07;;;;;;;22.70;13.35;;;;;;;;;;6289617;28;20132;-77
2021/03/28 03:29:32;;;;;;;17.73;12.35;;;;;;;;;;6283322;28;20052;-76
2021/03/28 03:32:55;;;;;;;16.55;12.07;;;;;;;;;;6287435;28;20135;-76
2021/03/28 03:36:13;;;;;;;21.98;12.85;;;;;;;;;;6288400;28;20407;-76
2021/03/28 03:39:42;;;;;;;17.67;13.25;;;;;;;;;;6285321;28;20055;-78
2021/03/28 03:43:17;;;;;;;19.33;13.23;;;;;;;;;;6293842;28;20056;-77
2021/03/28 03:46:35;;;;;;;22.35;13.55;;;;;;;;;;6267830;28;20613;-77
2021/03/28 03:49:48;;;;;;;18.13;13.88;;;;;;;;;;6297144;28;20087;-78
2021/03/28 03:53:05;;;;;;;20.45;14.18;;;;;;;;;;6288905;28;20045;-78
2021/03/28 03:56:16;;;;;;;19.88;14.27;;;;;;;;;;6297500;28;20058;-76
2021/03/28 03:59:25;;;;;;;21.85;15.20;;;;;;;;;;6289948;28;20140;-76
2021/03/28 04:02:32;;;;;;;22.67;16.67;;;;;;;;;;6290155;28;20441;-76
2021/03/28 04:05:53;;;;;;;24.80;17.08;;;;;;;;;;6285602;28;20171;-76
2021/03/28 04:09:03;;;;;;;29.02;17.48;;;;;;;;;;6288602;28;20176;-76
2021/03/28 04:12:13;;;;;;;23.83;18.35;;;;;;;;;;6284574;28;20135;-77
2021/03/28 04:15:23;;;;;;;30.70;19.08;;;;;;;;;;6294508;28;20091;-77
2021/03/28 04:18:44;;;;;;;24.27;17.85;;;;;;;;;;6287069;28;20071;-76
2021/03/28 04:21:58;;;;;;;27.48;18.77;;;;;;;;;;6287697;28;20079;-77
2021/03/28 04:25:08;;;;;;;26.35;19.02;;;;;;;;;;6285720;28;20128;-77
2021/03/28 04:28:39;;;;;;;26.58;19.70;;;;;;;;;;6293359;28;20060;-76
2021/03/28 04:32:02;;;;;;;25.42;20.10;;;;;;;;;;6281545;28;20121;-77
2021/03/28 04:35:37;;;;;;;29.88;20.92;;;;;;;;;;6285999;28;20041;-76
2021/03/28 04:39:01;;;;;;;27.80;20.80;;;;;;;;;;6250349;28;20507;-77
2021/03/28 04:42:25;;;;;;;29.75;20.95;;;;;;;;;;6286175;28;20560;-76
2021/03/28 04:45:55;;;;;;;29.02;20.73;;;;;;;;;;6269251;28;20131;-77
2021/03/28 04:49:07;;;;;;;31.80;22.90;;;;;;;;;;6293051;28;20131;-76
2021/03/28 04:52:56;;;;;;;31.23;23.27;;;;;;;;;;6287616;28;20048;-76
2021/03/28 04:56:34;;;;;;;31.65;23.33;;;;;;;;;;6284894;28;20040;-77
2021/03/28 04:59:59;;;;;;;30.15;22.83;;;;;;;;;;6288814;28;20056;-76
2021/03/28 05:03:33;;;;;;;30.90;24.95;;;;;;;;;;6277462;28;20064;-77
2021/03/28 05:06:50;;;;;;;30.08;23.98;;;;;;;;;;6274688;28;20114;-76
2021/03/28 05:10:30;;;;;;;35.88;24.52;;;;;;;;;;6287599;28;20075;-76
2021/03/28 05:13:48;;;;;;;32.28;24.55;;;;;;;;;;6290987;28;20083;-76
2021/03/28 05:17:21;;;;;;;33.03;24.42;;;;;;;;;;6288403;28;20072;-77
2021/03/28 05:20:51;;;;;;;34.75;25.77;;;;;;;;;;6287446;28;20538;-77
2021/03/28 05:24:28;;;;;;;33.05;25.52;;;;;;;;;;6280106;28;20620;-77
2021/03/28 05:27:58;;;;;;;37.35;27.30;;;;;;;;;;6279586;28;20099;-76
2021/03/28 05:31:39;;;;;;;33.00;26.48;;;;;;;;;;6280875;28;20052;-76
2021/03/28 05:35:07;;;;;;;38.22;27.27;;;;;;;;;;6280482;28;20054;-76
2021/03/28 05:38:22;;;;;;;32.90;25.58;;;;;;;;;;6287429;28;20033;-76
2021/03/28 05:41:33;;;;;;;;;;;;;;;;;;6277122;28;20124;-76
2021/03/28 05:44:53;;;;;;;34.67;24.40;;;;;;;;;;6283147;28;20026;-77
2021/03/28 05:48:14;;;;;;;34.88;24.83;;;;;;;;;;6234657;28;20064;-77
2021/03/28 05:51:40;;;;;;;37.88;24.52;;;;;;;;;;6274900;28;20131;-77
2021/03/28 05:55:09;;;;;;;30.23;24.05;;;;;;;;;;6285683;28;20578;-77
2021/03/28 05:58:44;;;;;;;35.35;24.70;;;;;;;;;;6285635;28;20529;-75
2021/03/28 06:01:48;;;;;;;;;;;;;;;;;;6284505;28;20104;-73
2021/03/28 06:05:20;;;;;;;35.10;25.58;;;;;;;;;;6284300;28;20320;-76
2021/03/28 06:09:10;;;;;;;34.25;24.98;;;;;;;;;;6287805;28;20044;-75
2021/03/28 06:12:29;;;;;;;32.63;25.15;;;;;;;;;;6289151;28;20049;-76
2021/03/28 06:15:46;;;;;;;37.97;26.17;;;;;;;;;;6282526;28;20182;-76
2021/03/28 06:19:33;;;;;;;35.50;26.63;;;;;;;;;;6283575;28;20480;-76
2021/03/28 06:23:13;;;;;;;32.58;25.48;;;;;;;;;;6288558;28;20044;-76
2021/03/28 06:27:00;;;;;;;38.75;26.98;;;;;;;;;;6286683;28;20036;-76
2021/03/28 06:30:38;;;;;;;36.78;24.27;;;;;;;;;;6283924;28;20032;-75
2021/03/28 06:34:19;;;;;;;30.75;22.42;;;;;;;;;;6272826;28;20048;-75
2021/03/28 06:38:04;;;;;;;31.33;24.02;;;;;;;;;;6285939;28;20081;-75
2021/03/28 06:41:24;;;;;;;33.55;24.67;;;;;;;;;;6217053;28;20045;-76
2021/03/28 06:44:45;;;;;;;31.02;23.65;;;;;;;;;;6297377;28;20051;-75
2021/03/28 06:48:09;;;;;;;29.65;22.80;;;;;;;;;;6296171;28;20063;-76
2021/03/28 06:51:39;;;;;;;31.53;23.60;;;;;;;;;;6291632;28;20040;-76
2021/03/28 06:55:10;;;;;;;32.03;23.48;;;;;;;;;;6295867;28;20053;-76
2021/03/28 06:58:49;;;;;;;33.00;22.30;;;;;;;;;;6292988;28;20117;-75
2021/03/28 07:02:19;;;;;;;29.63;23.17;;;;;;;;;;6271498;28;20124;-76
2021/03/28 07:05:28;;;;;;;32.17;22.75;;;;;;;;;;6288266;28;20543;-76
2021/03/28 07:08:41;;;;;;;28.35;22.35;;;;;;;;;;6285482;28;20713;-76
2021/03/28 07:11:55;;;;;;;29.23;22.48;;;;;;;;;;6285561;28;20105;-76
2021/03/28 07:15:19;;;;;;;27.10;22.23;;;;;;;;;;6287643;28;20045;-76
2021/03/28 07:19:01;;;;;;;29.48;23.05;;;;;;;;;;6286585;28;20067;-76
2021/03/28 07:22:21;;;;;;;29.17;22.95;;;;;;;;;;6250934;28;20048;-76
2021/03/28 07:25:55;;;;;;;31.10;23.40;;;;;;;;;;6281325;28;20110;-75
2021/03/28 07:29:47;;;;;;;29.00;22.93;;;;;;;;;;6203468;28;20644;-76
2021/03/28 07:33:28;;;;;;;28.35;22.70;;;;;;;;;;6215406;28;20474;-76
2021/03/28 07:37:05;;;;;;;30.13;22.52;;;;;;;;;;6282459;28;20396;-75
2021/03/28 07:40:21;;;;;;;29.67;22.55;;;;;;;;;;6266928;28;20047;-75
2021/03/28 07:44:02;;;;;;;30.50;22.83;;;;;;;;;;6282003;28;20554;-75
2021/03/28 07:47:31;;;;;;;32.10;21.95;;;;;;;;;;6267056;28;20124;-76
2021/03/28 07:51:02;;;;;;;33.38;23.42;;;;;;;;;;6288603;28;20053;-76
2021/03/28 07:54:36;;;;;;;30.10;22.88;;;;;;;;;;6293689;28;20049;-74
2021/03/28 07:58:08;;;;;;;35.08;22.75;;;;;;;;;;6253146;28;20072;-75
2021/03/28 08:01:44;;;;;;;28.50;23.13;;;;;;;;;;6285163;28;20495;-76
2021/03/28 08:05:17;;;;;;;27.70;22.13;;;;;;;;;;6287974;28;20091;-75
2021/03/28 08:08:31;;;;;;;32.70;23.08;;;;;;;;;;6207732;28;20110;-76
2021/03/28 08:11:47;;;;;;;29.25;22.42;;;;;;;;;;6283253;28;20728;-76
2021/03/28 08:15:33;;;;;;;29.17;22.63;;;;;;;;;;6287731;28;20479;-76
2021/03/28 08:18:40;;;;;;;26.70;21.48;;;;;;;;;;6223936;28;20650;-76
2021/03/28 08:21:44;;;;;;;27.10;22.55;;;;;;;;;;6294230;28;20036;-78
2021/03/28 08:25:00;;;;;;;24.73;20.90;;;;;;;;;;6297537;28;20037;-75
2021/03/28 08:28:31;;;;;;;21.67;18.00;;;;;;;;;;6288316;28;20111;-74
2021/03/28 08:31:35;;;;;;;20.80;17.80;;;;;;;;;;6262039;28;20049;-74
2021/03/28 08:35:09;;;;;;;25.02;16.42;;;;;;;;;;6278130;28;20075;-75
2021/03/28 08:38:46;;;;;;;23.98;17.50;;;;;;;;;;6281325;28;20578;-76
2021/03/28 08:42:17;;;;;;;19.70;16.65;;;;;;;;;;6270160;28;20659;-75
2021/03/28 08:45:32;;;;;;;17.63;15.05;;;;;;;;;;6284138;28;20049;-76
2021/03/28 08:48:43;;;;;;;18.05;14.52;;;;;;;;;;6285238;28;20044;-75
2021/03/28 08:52:04;;;;;;;20.17;14.40;;;;;;;;;;6287932;28;20068;-76
2021/03/28 08:55:09;;;;;;;16.77;14.30;;;;;;;;;;6283264;28;20711;-76
2021/03/28 08:58:20;;;;;;;20.40;13.70;;;;;;;;;;6286841;28;20072;-77
2021/03/28 09:01:27;;;;;;;16.67;11.20;;;;;;;;;;6282103;28;20059;-78
2021/03/28 09:04:51;;;;;;;11.98;7.97;;;;;;;;;;6289038;28;20072;-75
2021/03/28 09:07:56;;;;;;;;;;;;;;;;;;6284943;28;20367;-77
2021/03/28 09:11:22;;;;;;;11.30;7.75;;;;;;;;;;6279625;28;19966;-76
2021/03/28 09:14:48;;;;;;;11.60;7.35;;;;;;;;;;6285256;28;20477;-76
2021/03/28 09:18:00;;;;;;;13.23;7.68;;;;;;;;;;6266295;28;20068;-75
2021/03/28 09:21:14;;;;;;;10.65;7.68;;;;;;;;;;6279201;28;20083;-73
2021/03/28 09:24:19;;;;;;;;;;;;;;;;;;6281982;28;20156;-75
2021/03/28 09:27:37;;;;;;;10.30;6.00;;;;;;;;;;6277589;28;19955;-75
2021/03/28 09:30:41;;;;;;;9.05;6.78;;;;;;;;;;6284074;28;20258;-75
2021/03/28 09:34:00;;;;;;;;;;;;;;;;;;6282030;28;20507;-76
2021/03/28 09:37:04;;;;;;;10.80;8.00;;;;;;;;;;6285133;28;19970;-75
2021/03/28 09:40:23;;;;;;;12.45;8.40;;;;;;;;;;6280659;28;20052;-74
2021/03/28 09:43:30;;;;;;;12.60;8.10;;;;;;;;;;6275154;28;20131;-76
2021/03/28 09:46:39;;;;;;;9.82;8.05;;;;;;;;;;6280801;28;20127;-74
2021/03/28 09:49:53;;;;;;;10.82;8.05;;;;;;;;;;6271980;28;20568;-77
2021/03/28 09:53:05;;;;;;;11.18;9.70;;;;;;;;;;6280907;28;20485;-78
2021/03/28 09:56:30;;;;;;;11.48;9.13;;;;;;;;;;6283219;28;20044;-76
2021/03/28 10:00:13;;;;;;;11.30;9.00;;;;;;;;;;6281496;28;20044;-77
2021/03/28 10:03:19;;;;;;;11.88;8.48;;;;;;;;;;6274604;28;20048;-77
2021/03/28 10:06:22;;;;;;;11.45;9.52;;;;;;;;;;6281794;28;20066;-77
2021/03/28 10:09:30;;;;;;;10.73;9.27;;;;;;;;;;6281082;28;20049;-77
2021/03/28 10:12:42;;;;;;;14.30;9.43;;;;;;;;;;6275289;28;20079;-78
2021/03/28 10:15:56;;;;;;;12.35;8.07;;;;;;;;;;6284602;28;20121;-78
2021/03/28 10:19:09;;;;;;;13.27;8.73;;;;;;;;;;6275996;28;20040;-78
2021/03/28 10:22:33;;;;;;;12.93;8.13;;;;;;;;;;6285949;28;20162;-78
2021/03/28 10:25:39;;;;;;;;;;;;;;;;;;6279871;28;20095;-78
2021/03/28 10:29:28;;;;;;;15.30;8.18;;;;;;;;;;6288200;28;20363;-78
2021/03/28 10:32:39;;;;;;;10.98;7.40;;;;;;;;;;6280030;28;20051;-79
2021/03/28 10:35:52;;;;;;;8.43;7.03;;;;;;;;;;6278446;28;20136;-77
2021/03/28 10:39:06;;;;;;;10.00;7.10;;;;;;;;;;6277146;28;20502;-77
2021/03/28 10:42:26;;;;;;;10.40;7.03;;;;;;;;;;6280901;28;20076;-77
2021/03/28 10:45:48;;;;;;;11.82;7.95;;;;;;;;;;6281886;28;20063;-77
2021/03/28 10:49:09;;;;;;;11.98;7.55;;;;;;;;;;6283370;28;20072;-79
2021/03/28 10:52:55;;;;;;;11.10;6.93;;;;;;;;;;6285183;28;20048;-73
2021/03/28 10:56:26;;;;;;;8.25;6.97;;;;;;;;;;6287647;28;20118;-80
2021/03/28 11:00:06;;;;;;;13.00;7.25;;;;;;;;;;6286498;28;20128;-69
2021/03/28 11:04:01;;;;;;;12.05;7.53;;;;;;;;;;6279445;28;20128;-79
2021/03/28 11:07:31;;;;;;;11.65;6.80;;;;;;;;;;6287246;28;20048;-78
2021/03/28 11:11:05;;;;;;;9.85;6.30;;;;;;;;;;6276503;28;20135;-78
2021/03/28 11:14:22;;;;;;;16.17;7.32;;;;;;;;;;6290224;28;20037;-78
2021/03/28 11:17:42;;;;;;;9.70;6.70;;;;;;;;;;6291255;28;20495;-78
2021/03/28 11:20:49;;;;;;;7.60;6.35;;;;;;;;;;6282353;28;20065;-79
2021/03/28 11:24:10;;;;;;;7.65;5.97;;;;;;;;;;6286567;28;20053;-75
2021/03/28 11:27:36;;;;;;;9.38;6.13;;;;;;;;;;6279462;28;20064;-77
2021/03/28 11:30:39;;;;;;;9.80;6.88;;;;;;;;;;6290399;28;20454;-76
2021/03/28 11:33:43;;;;;;;10.38;7.43;;;;;;;;;;6290479;28;20076;-76
2021/03/28 11:36:57;;;;;;;9.57;6.90;;;;;;;;;;6290285;28;20479;-75
2021/03/28 11:40:18;;;;;;;9.82;6.47;;;;;;;;;;6289828;28;20045;-76
2021/03/28 11:43:32;;;;;;;8.82;6.50;;;;;;;;;;6286543;28;20048;-76
2021/03/28 11:46:34;;;;;;;8.95;6.22;;;;;;;;;;6287014;28;20044;-79
2021/03/28 11:49:52;;;;;;;9.65;7.10;;;;;;;;;;6297248;28;21236;-79
2021/03/28 11:52:57;;;;;;;8.85;6.30;;;;;;;;;;6291309;28;20065;-80
2021/03/28 11:56:00;;;;;;;10.40;6.15;;;;;;;;;;6290236;28;20045;-78
2021/03/28 11:59:02;;;;;;;;;;;;;;;;;;6291320;28;20048;-79
2021/03/28 12:02:19;;;;;;;8.40;6.95;;;;;;;;;;6287716;28;19925;-78
2021/03/28 12:05:48;;;;;;;7.75;6.57;;;;;;;;;;6285202;28;20493;-78
2021/03/28 12:09:00;;;;;;;8.68;6.97;;;;;;;;;;6284037;28;20104;-78
2021/03/28 12:12:19;;;;;;;8.90;6.75;;;;;;;;;;6283756;28;20418;-77
2021/03/28 12:15:55;;;;;;;11.35;7.00;;;;;;;;;;6285343;28;20080;-77
2021/03/28 12:18:57;;;;;;;7.70;6.80;;;;;;;;;;6287233;28;20083;-78
2021/03/28 12:22:03;;;;;;;8.15;6.30;;;;;;;;;;6287358;28;20136;-79
2021/03/28 12:25:06;;;;;;;8.48;6.28;;;;;;;;;;6285408;28;20061;-76
2021/03/28 12:28:28;;;;;;;12.82;5.53;;;;;;;;;;6273765;28;20084;-74
2021/03/28 12:31:33;;;;;;;6.85;5.22;;;;;;;;;;6276079;28;20051;-77
2021/03/28 12:34:37;;;;;;;10.52;7.00;;;;;;;;;;6286423;28;20094;-76
2021/03/28 12:37:38;;;;;;;8.75;6.80;;;;;;;;;;6283489;28;20040;-77
2021/03/28 12:40:39;;;;;;;8.68;7.25;;;;;;;;;;6280311;28;20047;-76
2021/03/28 12:43:42;;;;;;;10.13;6.53;;;;;;;;;;6289154;28;20086;-76
2021/03/28 12:47:20;;;;;;;14.45;6.72;;;;;;;;;;6295148;28;20182;-76
2021/03/28 12:50:27;;;;;;;8.90;6.80;;;;;;;;;;6290322;28;20074;-77
2021/03/28 12:53:33;;;;;;;8.38;5.90;;;;;;;;;;6290564;28;20064;-80
2021/03/28 12:56:35;;;;;;;7.82;5.70;;;;;;;;;;6290810;28;20135;-78
2021/03/28 12:59:39;;;;;;;6.80;5.97;;;;;;;;;;6291569;28;20384;-81
2021/03/28 13:02:40;;;;;;;7.70;5.35;;;;;;;;;;6305916;28;20076;-82
2021/03/28 13:06:05;;;;;;;7.47;5.47;;;;;;;;;;6302787;28;20075;-78
2021/03/28 13:09:22;;;;;;;8.30;4.97;;;;;;;;;;6312422;28;20033;-82
2021/03/28 13:12:26;;;;;;;6.75;4.85;;;;;;;;;;6309845;28;20290;-78
2021/03/28 13:15:36;;;;;;;6.25;4.97;;;;;;;;;;6306661;28;20052;-77
2021/03/28 13:18:46;;;;;;;8.05;4.93;;;;;;;;;;6297571;28;20504;-79
2021/03/28 13:21:57;;;;;;;6.35;4.82;;;;;;;;;;6301611;28;20079;-76
2021/03/28 13:25:07;;;;;;;7.68;4.35;;;;;;;;;;6285188;28;20105;-76
2021/03/28 13:28:24;;;;;;;8.27;4.70;;;;;;;;;;6296887;28;20049;-78
2021/03/28 13:31:32;;;;;;;12.63;4.95;;;;;;;;;;6288291;28;20056;-77
2021/03/28 13:34:37;;;;;;;10.10;4.97;;;;;;;;;;6283275;28;20056;-76
2021/03/28 13:37:49;;;;;;;7.18;4.60;;;;;;;;;;6278437;28;20052;-70
2021/03/28 13:40:51;;;;;;;7.97;4.70;;;;;;;;;;6280062;28;20045;-75
2021/03/28 13:44:02;;;;;;;13.87;5.00;;;;;;;;;;6277030;28;21114;-75
2021/03/28 13:47:05;;;;;;;7.15;3.90;;;;;;;;;;6276275;28;20128;-74
2021/03/28 13:50:47;;;;;;;7.45;4.65;;;;;;;;;;6281126;28;20072;-75
2021/03/28 13:53:58;;;;;;;10.15;4.93;;;;;;;;;;6277821;28;20083;-75
2021/03/28 13:57:00;;;;;;;7.32;5.00;;;;;;;;;;6289726;28;21266;-75
2021/03/28 14:00:12;;;;;;;11.68;5.18;;;;;;;;;;6281508;28;20124;-75
2021/03/28 14:03:17;;;;;;;8.10;4.63;;;;;;;;;;6283864;28;20114;-74
2021/03/28 14:06:23;;;;;;;6.15;4.28;;;;;;;;;;6281073;28;20126;-74
2021/03/28 14:09:30;;;;;;;11.95;5.03;;;;;;;;;;6271032;28;20128;-74
2021/03/28 14:12:37;;;;;;;6.00;3.97;;;;;;;;;;6278758;28;20268;-74
2021/03/28 14:15:41;;;;;;;10.10;4.72;;;;;;;;;;6278532;28;20679;-75
2021/03/28 14:18:45;;;;;;;10.88;4.47;;;;;;;;;;6275684;28;20592;-75
2021/03/28 14:21:47;;;;;;;9.77;4.65;;;;;;;;;;6275756;28;20321;-75
2021/03/28 14:24:53;;;;;;;39.80;6.22;;;;;;;;;;6280961;28;20114;-75
2021/03/28 14:27:54;;;;;;;28.27;5.10;;;;;;;;;;6281897;28;20554;-75
2021/03/28 14:30:59;;;;;;;8.02;4.50;;;;;;;;;;6277500;28;20568;-75
2021/03/28 14:34:37;;;;;;;9.75;4.82;;;;;;;;;;6285634;28;20111;-76
2021/03/28 14:38:13;;;;;;;59.97;9.57;;;;;;;;;;6283454;28;20055;-75
2021/03/28 14:41:42;;;;;;;38.47;6.20;;;;;;;;;;6294357;28;20045;-77
2021/03/28 14:45:06;;;;;;;7.32;4.72;;;;;;;;;;6315810;28;20048;-81
2021/03/28 14:48:24;;;;;;;7.22;5.35;;;;;;;;;;6296265;28;20048;-76
2021/03/28 14:51:28;;;;;;;9.68;5.65;;;;;;;;;;6282355;28;20083;-77
2021/03/28 14:54:33;;;;;;;9.95;6.97;;;;;;;;;;6287145;28;20072;-77
2021/03/28 14:57:42;;;;;;;18.15;6.13;;;;;;;;;;6288048;28;20174;-78
2021/03/28 15:00:45;;;;;;;11.05;5.00;;;;;;;;;;6294500;28;20120;-78
2021/03/28 15:04:02;;;;;;;21.77;5.50;;;;;;;;;;6293388;28;20040;-79
2021/03/28 15:07:24;;;;;;;31.13;6.57;;;;;;;;;;6287651;28;20463;-78
2021/03/28 15:10:37;;;;;;;8.00;5.95;;;;;;;;;;6290054;28;20041;-78
2021/03/28 15:13:47;;;;;;;5.90;5.18;;;;;;;;;;6300161;28;20049;-78
2021/03/28 15:16:54;;;;;;;8.00;5.70;;;;;;;;;;6299014;28;20445;-78
2021/03/28 15:20:00;;;;;;;11.60;5.80;;;;;;;;;;6298713;28;20076;-78
2021/03/28 15:23:10;;;;;;;10.65;5.20;;;;;;;;;;6289866;28;20045;-79
2021/03/28 15:26:31;;;;;;;5.82;4.25;;;;;;;;;;6293737;28;20467;-78
2021/03/28 15:29:38;;;;;;;10.05;4.55;;;;;;;;;;6297133;28;20057;-78
2021/03/28 15:33:15;;;;;;;7.47;3.95;;;;;;;;;;6284559;28;20072;-79
2021/03/28 15:36:33;;;;;;;11.38;4.70;;;;;;;;;;6284167;28;20059;-78
2021/03/28 15:39:59;;;;;;;4.80;3.70;;;;;;;;;;6300365;28;20140;-78
2021/03/28 15:43:09;;;;;;;8.05;4.40;;;;;;;;;;6293383;28;20482;-78
2021/03/28 15:46:19;;;;;;;9.43;3.83;;;;;;;;;;6296095;28;20072;-78
2021/03/28 15:49:58;;;;;;;8.57;4.78;;;;;;;;;;6297098;28;20063;-79
2021/03/28 15:53:28;;;;;;;7.63;4.03;;;;;;;;;;6295442;28;20519;-78
2021/03/28 15:56:34;;;;;;;5.22;3.70;;;;;;;;;;6293066;28;20048;-79
2021/03/28 16:00:20;;;;;;;10.85;3.97;;;;;;;;;;6289969;28;20076;-79
2021/03/28 16:03:35;;;;;;;4.40;3.55;;;;;;;;;;6279554;28;20135;-79
2021/03/28 16:06:43;;;;;;;9.30;4.20;;;;;;;;;;6295784;28;20144;-78
2021/03/28 16:10:12;;;;;;;5.10;3.83;;;;;;;;;;6295393;28;20041;-79
2021/03/28 16:13:25;;;;;;;8.73;4.35;;;;;;;;;;6288525;28;20068;-79
2021/03/28 16:16:45;;;;;;;;;;;;;;;;;;6287743;28;20140;-79
2021/03/28 16:19:55;;;;;;;4.72;3.97;;;;;;;;;;6293426;28;19955;-78
2021/03/28 16:23:18;;;;;;;22.40;4.50;;;;;;;;;;6295037;28;20088;-78
2021/03/28 16:26:27;;;;;;;16.10;4.32;;;;;;;;;;6287540;28;20083;-78
2021/03/28 16:30:04;;;;;;;16.08;4.75;;;;;;;;;;6282130;28;20041;-78
2021/03/28 16:33:19;;;;;;;4.95;4.10;;;;;;;;;;6280054;28;20077;-79
2021/03/28 16:36:28;;;;;;;9.05;4.20;;;;;;;;;;6283086;28;20485;-78
2021/03/28 16:39:32;;;;;;;9.73;4.20;;;;;;;;;;6286045;28;20056;-78
2021/03/28 16:42:35;;;;;;;12.20;4.40;;;;;;;;;;6288074;28;20045;-78
2021/03/28 16:45:40;;;;;;;12.48;5.15;;;;;;;;;;6281425;28;20059;-76
2021/03/28 16:48:47;;;;;;;8.48;5.40;;;;;;;;;;6279228;28;20127;-77
2021/03/28 16:51:50;;;;;;;7.40;5.22;;;;;;;;;;6283351;28;20055;-77
2021/03/28 16:54:52;;;;;;;10.27;4.50;;;;;;;;;;6286069;28;20111;-76
2021/03/28 16:57:56;;;;;;;20.95;6.03;;;;;;;;;;6280107;28;20048;-77
2021/03/28 17:01:11;;;;;;;14.88;4.82;;;;;;;;;;6279451;28;20315;-77
2021/03/28 17:04:25;;;;;;;6.50;4.40;;;;;;;;;;6275053;28;20460;-77
2021/03/28 17:07:29;;;;;;;6.85;4.22;;;;;;;;;;6278001;28;20060;-77
2021/03/28 17:10:39;;;;;;;9.25;4.80;;;;;;;;;;6284137;28;20094;-77
2021/03/28 17:13:47;;;;;;;17.45;5.00;;;;;;;;;;6286029;28;20088;-77
2021/03/28 17:16:48;;;;;;;18.63;5.18;;;;;;;;;;6281827;28;20044;-77
2021/03/28 17:20:18;;;;;;;8.23;4.45;;;;;;;;;;6280836;28;20051;-79
2021/03/28 17:23:46;;;;;;;7.03;4.68;;;;;;;;;;6287553;28;20085;-77
2021/03/28 17:27:00;;;;;;;8.27;4.75;;;;;;;;;;6276070;28;20531;-77
2021/03/28 17:30:01;;;;;;;9.15;4.70;;;;;;;;;;6278035;28;20526;-77
2021/03/28 17:33:03;;;;;;;8.02;4.50;;;;;;;;;;6280525;28;20487;-76
2021/03/28 17:36:31;;;;;;;8.23;4.55;;;;;;;;;;6278911;28;20359;-77
2021/03/28 17:39:49;;;;;;;5.40;4.28;;;;;;;;;;6280243;28;20564;-77
2021/03/28 17:42:50;;;;;;;7.07;4.40;;;;;;;;;;6282915;28;20056;-77
2021/03/28 17:45:51;;;;;;;10.88;5.20;;;;;;;;;;6283761;28;20454;-77
2021/03/28 17:48:52;;;;;;;5.13;4.43;;;;;;;;;;6285903;28;20102;-77
2021/03/28 17:51:53;;;;;;;9.27;5.07;;;;;;;;;;6284116;28;20127;-77
2021/03/28 17:55:34;;;;;;;7.90;4.90;;;;;;;;;;6282450;28;20103;-77
2021/03/28 17:58:52;;;;;;;7.95;4.97;;;;;;;;;;6280991;28;20777;-77
2021/03/28 18:01:53;;;;;;;8.30;5.05;;;;;;;;;;6282797;28;20044;-77
2021/03/28 18:04:56;;;;;;;9.00;4.72;;;;;;;;;;6283466;28;20091;-77
2021/03/28 18:08:02;;;;;;;10.80;5.22;;;;;;;;;;6285297;28;20139;-77
2021/03/28 18:11:05;;;;;;;12.45;5.20;;;;;;;;;;6281496;28;20074;-77
2021/03/28 18:14:26;;;;;;;8.43;4.68;;;;;;;;;;6283529;28;20131;-77
2021/03/28 18:17:27;;;;;;;6.70;4.97;;;;;;;;;;6282361;28;20048;-77
2021/03/28 18:20:33;;;;;;;6.93;5.30;;;;;;;;;;6282265;28;20123;-77
2021/03/28 18:23:38;;;;;;;6.13;4.47;;;;;;;;;;6279271;28;20041;-77
2021/03/28 18:26:49;;;;;;;7.40;4.90;;;;;;;;;;6295316;28;20083;-77
2021/03/28 18:29:57;;;;;;;8.75;4.80;;;;;;;;;;6284762;28;20045;-77
2021/03/28 18:33:13;;;;;;;6.45;4.70;;;;;;;;;;6285021;28;20732;-77
2021/03/28 18:36:28;;;;;;;7.85;5.13;;;;;;;;;;6286676;28;20123;-77
2021/03/28 18:39:36;;;;;;;8.38;4.93;;;;;;;;;;6284453;28;20077;-77
2021/03/28 18:42:53;;;;;;;10.48;5.47;;;;;;;;;;6281397;28;20049;-77
2021/03/28 18:46:13;;;;;;;6.57;5.00;;;;;;;;;;6280142;28;20399;-77
2021/03/28 18:49:21;;;;;;;8.55;5.18;;;;;;;;;;6281133;28;20099;-77
2021/03/28 18:52:23;;;;;;;9.57;5.82;;;;;;;;;;6292458;28;20136;-77
2021/03/28 18:55:39;;;;;;;9.63;6.75;;;;;;;;;;6285335;28;20131;-77
2021/03/28 18:58:43;;;;;;;9.10;5.95;;;;;;;;;;6280690;28;20598;-77
2021/03/28 19:01:51;;;;;;;9.00;6.10;;;;;;;;;;6276398;28;20052;-77
2021/03/28 19:04:54;;;;;;;8.75;5.97;;;;;;;;;;6280181;28;20051;-77
2021/03/28 19:07:55;;;;;;;8.27;6.22;;;;;;;;;;6288669;28;20040;-77
2021/03/28 19:10:58;;;;;;;8.90;6.03;;;;;;;;;;6299184;28;20572;-77
2021/03/28 19:14:02;;;;;;;11.38;6.80;;;;;;;;;;6287532;28;20060;-77
2021/03/28 19:17:17;;;;;;;8.95;5.95;;;;;;;;;;6281191;28;20071;-77
2021/03/28 19:20:18;;;;;;;9.43;6.55;;;;;;;;;;6289166;28;20055;-77
2021/03/28 19:23:23;;;;;;;7.63;5.97;;;;;;;;;;6292780;28;20141;-77